sensor_id;sensor_type;location;lat;lon;timestamp;P1;durP1;ratioP1;P2;durP2;ratioP2
3698;SDS011;1865;50.918;7.092;2022-10-04T00:00:28;16.20;;;5.30;;
3698;SDS011;1865;50.918;7.092;2022-10-04T00:05:36;15.63;;;6.07;;
3698;SDS011;1865;50.918;7.092;2022-10-04T00:11:12;11.23;;;4.87;;
3698;SDS011;1865;50.918;7.092;2022-10-04T00:13:47;11.80;;;5.33;;
3698;SDS011;1865;50.918;7.092;2022-10-04T00:16:23;15.83;;;5.20;;
3698;SDS011;1865;50.918;7.092;2022-10-04T00:24:23;18.23;;;5.47;;
3698;SDS011;1865;50.918;7.092;2022-10-04T00:29:31;16.17;;;5.67;;
3698;SDS011;1865;50.918;7.092;2022-10-04T00:34:44;21.93;;;5.47;;
3698;SDS011;1865;50.918;7.092;2022-10-04T00:37:14;19.83;;;4.90;;
3698;SDS011;1865;50.918;7.092;2022-10-04T00:39:43;12.80;;;5.60;;
3698;SDS011;1865;50.918;7.092;2022-10-04T00:45:27;10.80;;;4.70;;
3698;SDS011;1865;50.918;7.092;2022-10-04T00:48:08;17.00;;;5.17;;
3698;SDS011;1865;50.918;7.092;2022-10-04T00:50:42;12.53;;;5.47;;
3698;SDS011;1865;50.918;7.092;2022-10-04T00:53:13;13.20;;;5.10;;
3698;SDS011;1865;50.918;7.092;2022-10-04T00:55:51;30.53;;;5.40;;
3698;SDS011;1865;50.918;7.092;2022-10-04T00:58:28;14.90;;;4.50;;
3698;SDS011;1865;50.918;7.092;2022-10-04T01:00:59;12.70;;;4.83;;
3698;SDS011;1865;50.918;7.092;2022-10-04T01:03:28;22.93;;;4.87;;
3698;SDS011;1865;50.918;7.092;2022-10-04T01:05:58;15.00;;;5.40;;
3698;SDS011;1865;50.918;7.092;2022-10-04T01:08:31;21.03;;;4.87;;
3698;SDS011;1865;50.918;7.092;2022-10-04T01:11:19;12.77;;;5.40;;
3698;SDS011;1865;50.918;7.092;2022-10-04T01:13:58;19.40;;;5.10;;
3698;SDS011;1865;50.918;7.092;2022-10-04T01:16:43;12.80;;;5.23;;
3698;SDS011;1865;50.918;7.092;2022-10-04T01:19:26;10.80;;;5.07;;
3698;SDS011;1865;50.918;7.092;2022-10-04T01:22:02;12.53;;;4.37;;
3698;SDS011;1865;50.918;7.092;2022-10-04T01:24:41;23.50;;;4.40;;
3698;SDS011;1865;50.918;7.092;2022-10-04T01:29:56;16.23;;;4.83;;
3698;SDS011;1865;50.918;7.092;2022-10-04T01:32:23;11.83;;;4.77;;
3698;SDS011;1865;50.918;7.092;2022-10-04T01:34:50;9.07;;;4.60;;
3698;SDS011;1865;50.918;7.092;2022-10-04T01:37:16;19.57;;;4.60;;
3698;SDS011;1865;50.918;7.092;2022-10-04T01:39:41;14.40;;;5.03;;
3698;SDS011;1865;50.918;7.092;2022-10-04T01:46:00;15.53;;;5.10;;
3698;SDS011;1865;50.918;7.092;2022-10-04T01:48:05;12.27;;;5.20;;
3698;SDS011;1865;50.918;7.092;2022-10-04T01:50:36;16.43;;;4.93;;
3698;SDS011;1865;50.918;7.092;2022-10-04T01:56:12;18.10;;;5.27;;
3698;SDS011;1865;50.918;7.092;2022-10-04T01:58:46;16.17;;;6.00;;
3698;SDS011;1865;50.918;7.092;2022-10-04T02:01:57;11.97;;;5.40;;
3698;SDS011;1865;50.918;7.092;2022-10-04T02:04:16;11.00;;;5.17;;
3698;SDS011;1865;50.918;7.092;2022-10-04T02:06:48;14.10;;;4.80;;
3698;SDS011;1865;50.918;7.092;2022-10-04T02:09:19;13.67;;;5.03;;
3698;SDS011;1865;50.918;7.092;2022-10-04T02:11:59;15.93;;;4.80;;
3698;SDS011;1865;50.918;7.092;2022-10-04T02:14:29;16.20;;;5.20;;
3698;SDS011;1865;50.918;7.092;2022-10-04T02:17:00;25.10;;;5.93;;
3698;SDS011;1865;50.918;7.092;2022-10-04T02:19:34;15.83;;;5.67;;
3698;SDS011;1865;50.918;7.092;2022-10-04T02:22:03;12.87;;;5.37;;
3698;SDS011;1865;50.918;7.092;2022-10-04T02:24:34;12.00;;;5.13;;
3698;SDS011;1865;50.918;7.092;2022-10-04T02:27:02;7.93;;;4.13;;
3698;SDS011;1865;50.918;7.092;2022-10-04T02:29:30;9.40;;;4.70;;
3698;SDS011;1865;50.918;7.092;2022-10-04T02:31:56;13.23;;;5.30;;
3698;SDS011;1865;50.918;7.092;2022-10-04T02:34:42;16.10;;;4.80;;
3698;SDS011;1865;50.918;7.092;2022-10-04T02:37:09;10.97;;;4.60;;
3698;SDS011;1865;50.918;7.092;2022-10-04T02:39:39;9.90;;;4.40;;
3698;SDS011;1865;50.918;7.092;2022-10-04T02:42:18;12.13;;;4.47;;
3698;SDS011;1865;50.918;7.092;2022-10-04T02:44:49;15.23;;;4.63;;
3698;SDS011;1865;50.918;7.092;2022-10-04T02:47:30;9.27;;;4.13;;
3698;SDS011;1865;50.918;7.092;2022-10-04T02:50:08;9.60;;;4.47;;
3698;SDS011;1865;50.918;7.092;2022-10-04T02:52:47;20.80;;;4.53;;
3698;SDS011;1865;50.918;7.092;2022-10-04T02:55:21;13.30;;;4.57;;
3698;SDS011;1865;50.918;7.092;2022-10-04T02:57:50;20.50;;;5.13;;
3698;SDS011;1865;50.918;7.092;2022-10-04T03:05:40;14.50;;;4.63;;
3698;SDS011;1865;50.918;7.092;2022-10-04T03:08:09;14.03;;;4.90;;
3698;SDS011;1865;50.918;7.092;2022-10-04T03:10:36;11.77;;;4.03;;
3698;SDS011;1865;50.918;7.092;2022-10-04T03:13:01;10.97;;;4.37;;
3698;SDS011;1865;50.918;7.092;2022-10-04T03:15:32;11.00;;;4.73;;
3698;SDS011;1865;50.918;7.092;2022-10-04T03:17:59;8.17;;;4.70;;
3698;SDS011;1865;50.918;7.092;2022-10-04T03:20:25;9.87;;;5.07;;
3698;SDS011;1865;50.918;7.092;2022-10-04T03:22:52;16.13;;;4.73;;
3698;SDS011;1865;50.918;7.092;2022-10-04T03:25:21;16.87;;;5.80;;
3698;SDS011;1865;50.918;7.092;2022-10-04T03:27:52;11.73;;;4.70;;
3698;SDS011;1865;50.918;7.092;2022-10-04T03:30:20;11.60;;;4.70;;
3698;SDS011;1865;50.918;7.092;2022-10-04T03:32:46;12.93;;;5.00;;
3698;SDS011;1865;50.918;7.092;2022-10-04T03:35:35;14.30;;;4.77;;
3698;SDS011;1865;50.918;7.092;2022-10-04T03:38:03;15.70;;;5.50;;
3698;SDS011;1865;50.918;7.092;2022-10-04T03:40:32;12.63;;;5.60;;
3698;SDS011;1865;50.918;7.092;2022-10-04T03:43:03;11.17;;;5.20;;
3698;SDS011;1865;50.918;7.092;2022-10-04T03:45:29;9.90;;;5.20;;
3698;SDS011;1865;50.918;7.092;2022-10-04T03:48:02;12.90;;;4.87;;
3698;SDS011;1865;50.918;7.092;2022-10-04T03:50:33;10.13;;;4.60;;
3698;SDS011;1865;50.918;7.092;2022-10-04T03:53:07;10.53;;;4.53;;
3698;SDS011;1865;50.918;7.092;2022-10-04T03:55:37;12.33;;;5.50;;
3698;SDS011;1865;50.918;7.092;2022-10-04T03:58:09;19.03;;;5.53;;
3698;SDS011;1865;50.918;7.092;2022-10-04T04:00:41;9.47;;;4.97;;
3698;SDS011;1865;50.918;7.092;2022-10-04T04:03:19;13.30;;;6.03;;
3698;SDS011;1865;50.918;7.092;2022-10-04T04:05:49;12.20;;;5.13;;
3698;SDS011;1865;50.918;7.092;2022-10-04T04:10:49;17.43;;;5.40;;
3698;SDS011;1865;50.918;7.092;2022-10-04T04:15:59;10.40;;;5.03;;
3698;SDS011;1865;50.918;7.092;2022-10-04T04:18:26;11.53;;;5.30;;
3698;SDS011;1865;50.918;7.092;2022-10-04T04:20:55;13.60;;;5.40;;
3698;SDS011;1865;50.918;7.092;2022-10-04T04:23:28;19.73;;;5.33;;
3698;SDS011;1865;50.918;7.092;2022-10-04T04:26:00;14.30;;;6.17;;
3698;SDS011;1865;50.918;7.092;2022-10-04T04:28:45;16.97;;;5.57;;
3698;SDS011;1865;50.918;7.092;2022-10-04T04:31:35;21.87;;;5.50;;
3698;SDS011;1865;50.918;7.092;2022-10-04T04:34:19;13.40;;;5.17;;
3698;SDS011;1865;50.918;7.092;2022-10-04T04:36:48;9.37;;;4.93;;
3698;SDS011;1865;50.918;7.092;2022-10-04T04:42:12;13.20;;;5.20;;
3698;SDS011;1865;50.918;7.092;2022-10-04T04:44:54;13.70;;;5.57;;
3698;SDS011;1865;50.918;7.092;2022-10-04T04:47:27;11.73;;;4.73;;
3698;SDS011;1865;50.918;7.092;2022-10-04T04:50:20;11.00;;;5.27;;
3698;SDS011;1865;50.918;7.092;2022-10-04T04:52:47;12.73;;;6.30;;
3698;SDS011;1865;50.918;7.092;2022-10-04T04:55:17;11.10;;;5.47;;
3698;SDS011;1865;50.918;7.092;2022-10-04T04:57:50;9.70;;;5.37;;
3698;SDS011;1865;50.918;7.092;2022-10-04T05:00:21;14.53;;;6.00;;
3698;SDS011;1865;50.918;7.092;2022-10-04T05:02:53;18.67;;;6.03;;
3698;SDS011;1865;50.918;7.092;2022-10-04T05:08:14;16.37;;;6.33;;
3698;SDS011;1865;50.918;7.092;2022-10-04T05:10:44;11.30;;;5.53;;
3698;SDS011;1865;50.918;7.092;2022-10-04T05:13:13;10.77;;;5.20;;
3698;SDS011;1865;50.918;7.092;2022-10-04T05:15:41;17.60;;;5.63;;
3698;SDS011;1865;50.918;7.092;2022-10-04T05:20:55;11.70;;;5.50;;
3698;SDS011;1865;50.918;7.092;2022-10-04T05:23:23;10.70;;;5.70;;
3698;SDS011;1865;50.918;7.092;2022-10-04T05:25:49;12.67;;;5.70;;
3698;SDS011;1865;50.918;7.092;2022-10-04T05:28:15;10.83;;;5.70;;
3698;SDS011;1865;50.918;7.092;2022-10-04T05:33:38;11.70;;;5.50;;
3698;SDS011;1865;50.918;7.092;2022-10-04T05:38:55;15.87;;;6.40;;
3698;SDS011;1865;50.918;7.092;2022-10-04T05:41:43;13.27;;;5.70;;
3698;SDS011;1865;50.918;7.092;2022-10-04T05:44:25;12.60;;;5.47;;
3698;SDS011;1865;50.918;7.092;2022-10-04T05:46:59;11.03;;;5.40;;
3698;SDS011;1865;50.918;7.092;2022-10-04T05:49:40;10.97;;;5.43;;
3698;SDS011;1865;50.918;7.092;2022-10-04T05:52:14;16.53;;;6.10;;
3698;SDS011;1865;50.918;7.092;2022-10-04T05:55:16;17.80;;;5.83;;
3698;SDS011;1865;50.918;7.092;2022-10-04T06:01:18;12.80;;;5.70;;
3698;SDS011;1865;50.918;7.092;2022-10-04T06:03:56;11.40;;;5.70;;
3698;SDS011;1865;50.918;7.092;2022-10-04T06:06:37;10.83;;;5.57;;
3698;SDS011;1865;50.918;7.092;2022-10-04T06:09:12;21.00;;;6.30;;
3698;SDS011;1865;50.918;7.092;2022-10-04T06:12:07;13.47;;;5.93;;
3698;SDS011;1865;50.918;7.092;2022-10-04T06:17:30;11.57;;;6.17;;
3698;SDS011;1865;50.918;7.092;2022-10-04T06:23:16;14.57;;;6.27;;
3698;SDS011;1865;50.918;7.092;2022-10-04T06:25:48;21.37;;;6.33;;
3698;SDS011;1865;50.918;7.092;2022-10-04T06:28:21;19.50;;;6.83;;
3698;SDS011;1865;50.918;7.092;2022-10-04T06:33:50;17.63;;;6.00;;
3698;SDS011;1865;50.918;7.092;2022-10-04T06:51:42;11.50;;;5.90;;
3698;SDS011;1865;50.918;7.092;2022-10-04T07:00:03;11.77;;;5.60;;
3698;SDS011;1865;50.918;7.092;2022-10-04T07:02:57;12.10;;;6.20;;
3698;SDS011;1865;50.918;7.092;2022-10-04T07:05:41;14.53;;;8.00;;
3698;SDS011;1865;50.918;7.092;2022-10-04T07:08:20;22.37;;;10.97;;
3698;SDS011;1865;50.918;7.092;2022-10-04T07:11:14;13.00;;;6.50;;
3698;SDS011;1865;50.918;7.092;2022-10-04T07:22:03;21.40;;;5.80;;
3698;SDS011;1865;50.918;7.092;2022-10-04T07:25:02;10.23;;;5.60;;
3698;SDS011;1865;50.918;7.092;2022-10-04T07:27:49;17.77;;;5.77;;
3698;SDS011;1865;50.918;7.092;2022-10-04T07:30:46;13.00;;;5.33;;
3698;SDS011;1865;50.918;7.092;2022-10-04T07:33:17;14.80;;;6.30;;
3698;SDS011;1865;50.918;7.092;2022-10-04T07:36:08;16.47;;;5.73;;
3698;SDS011;1865;50.918;7.092;2022-10-04T07:38:49;15.53;;;5.90;;
3698;SDS011;1865;50.918;7.092;2022-10-04T07:41:38;18.03;;;5.33;;
3698;SDS011;1865;50.918;7.092;2022-10-04T07:47:20;18.33;;;6.30;;
3698;SDS011;1865;50.918;7.092;2022-10-04T07:49:49;9.80;;;4.90;;
3698;SDS011;1865;50.918;7.092;2022-10-04T07:55:12;25.23;;;5.30;;
3698;SDS011;1865;50.918;7.092;2022-10-04T08:00:47;9.67;;;4.20;;
3698;SDS011;1865;50.918;7.092;2022-10-04T08:06:06;10.50;;;3.80;;
3698;SDS011;1865;50.918;7.092;2022-10-04T08:11:46;10.23;;;3.97;;
3698;SDS011;1865;50.918;7.092;2022-10-04T08:17:23;17.53;;;4.60;;
3698;SDS011;1865;50.918;7.092;2022-10-04T08:20:02;11.30;;;4.90;;
3698;SDS011;1865;50.918;7.092;2022-10-04T08:23:05;13.80;;;4.20;;
3698;SDS011;1865;50.918;7.092;2022-10-04T08:28:52;11.80;;;4.27;;
3698;SDS011;1865;50.918;7.092;2022-10-04T08:31:49;11.53;;;4.77;;
3698;SDS011;1865;50.918;7.092;2022-10-04T08:34:27;11.90;;;4.07;;
3698;SDS011;1865;50.918;7.092;2022-10-04T08:46:35;10.40;;;3.90;;
3698;SDS011;1865;50.918;7.092;2022-10-04T08:49:14;9.50;;;4.30;;
3698;SDS011;1865;50.918;7.092;2022-10-04T08:55:08;12.70;;;3.90;;
3698;SDS011;1865;50.918;7.092;2022-10-04T09:14:43;11.27;;;4.10;;
3698;SDS011;1865;50.918;7.092;2022-10-04T09:26:42;11.87;;;3.93;;
3698;SDS011;1865;50.918;7.092;2022-10-04T09:32:18;10.67;;;3.30;;
3698;SDS011;1865;50.918;7.092;2022-10-04T09:40:30;11.77;;;3.20;;
3698;SDS011;1865;50.918;7.092;2022-10-04T09:43:43;7.90;;;3.37;;
3698;SDS011;1865;50.918;7.092;2022-10-04T09:49:17;10.23;;;3.00;;
3698;SDS011;1865;50.918;7.092;2022-10-04T09:55:12;14.80;;;3.57;;
3698;SDS011;1865;50.918;7.092;2022-10-04T10:03:16;14.07;;;2.70;;
3698;SDS011;1865;50.918;7.092;2022-10-04T10:06:00;10.33;;;3.13;;
3698;SDS011;1865;50.918;7.092;2022-10-04T10:08:51;9.57;;;3.63;;
3698;SDS011;1865;50.918;7.092;2022-10-04T10:11:50;12.10;;;3.27;;
3698;SDS011;1865;50.918;7.092;2022-10-04T10:15:10;11.73;;;2.93;;
3698;SDS011;1865;50.918;7.092;2022-10-04T10:17:49;12.30;;;3.13;;
3698;SDS011;1865;50.918;7.092;2022-10-04T10:23:38;14.00;;;2.80;;
3698;SDS011;1865;50.918;7.092;2022-10-04T10:26:32;9.97;;;3.17;;
3698;SDS011;1865;50.918;7.092;2022-10-04T10:37:31;10.30;;;3.30;;
3698;SDS011;1865;50.918;7.092;2022-10-04T10:40:27;8.80;;;2.60;;
3698;SDS011;1865;50.918;7.092;2022-10-04T10:43:21;12.23;;;2.80;;
3698;SDS011;1865;50.918;7.092;2022-10-04T10:46:26;10.40;;;2.87;;
3698;SDS011;1865;50.918;7.092;2022-10-04T10:55:15;9.90;;;3.40;;
3698;SDS011;1865;50.918;7.092;2022-10-04T10:58:06;12.03;;;3.20;;
3698;SDS011;1865;50.918;7.092;2022-10-04T11:01:13;10.20;;;2.77;;
3698;SDS011;1865;50.918;7.092;2022-10-04T11:04:22;11.53;;;3.27;;
3698;SDS011;1865;50.918;7.092;2022-10-04T11:07:08;11.57;;;3.13;;
3698;SDS011;1865;50.918;7.092;2022-10-04T11:12:32;10.30;;;3.00;;
3698;SDS011;1865;50.918;7.092;2022-10-04T11:15:32;18.33;;;3.30;;
3698;SDS011;1865;50.918;7.092;2022-10-04T11:24:17;8.30;;;2.90;;
3698;SDS011;1865;50.918;7.092;2022-10-04T11:27:10;10.63;;;3.33;;
3698;SDS011;1865;50.918;7.092;2022-10-04T11:52:54;8.60;;;3.17;;
3698;SDS011;1865;50.918;7.092;2022-10-04T11:55:34;15.13;;;3.20;;
3698;SDS011;1865;50.918;7.092;2022-10-04T11:58:33;8.67;;;2.50;;
3698;SDS011;1865;50.918;7.092;2022-10-04T12:01:29;12.50;;;3.00;;
3698;SDS011;1865;50.918;7.092;2022-10-04T12:04:07;11.17;;;3.40;;
3698;SDS011;1865;50.918;7.092;2022-10-04T12:06:55;10.47;;;2.77;;
3698;SDS011;1865;50.918;7.092;2022-10-04T12:21:13;14.50;;;2.40;;
3698;SDS011;1865;50.918;7.092;2022-10-04T12:33:28;14.10;;;2.33;;
3698;SDS011;1865;50.918;7.092;2022-10-04T12:36:10;13.47;;;2.20;;
3698;SDS011;1865;50.918;7.092;2022-10-04T12:53:23;10.00;;;2.93;;
3698;SDS011;1865;50.918;7.092;2022-10-04T12:56:17;9.53;;;2.93;;
3698;SDS011;1865;50.918;7.092;2022-10-04T12:59:17;10.80;;;3.00;;
3698;SDS011;1865;50.918;7.092;2022-10-04T13:02:00;9.40;;;2.63;;
3698;SDS011;1865;50.918;7.092;2022-10-04T13:04:37;13.90;;;3.07;;
3698;SDS011;1865;50.918;7.092;2022-10-04T13:16:00;10.93;;;2.80;;
3698;SDS011;1865;50.918;7.092;2022-10-04T13:21:52;10.70;;;2.30;;
3698;SDS011;1865;50.918;7.092;2022-10-04T13:27:02;9.27;;;2.30;;
3698;SDS011;1865;50.918;7.092;2022-10-04T13:32:23;9.20;;;2.00;;
3698;SDS011;1865;50.918;7.092;2022-10-04T13:37:34;11.33;;;2.40;;
3698;SDS011;1865;50.918;7.092;2022-10-04T13:43:14;9.80;;;2.20;;
3698;SDS011;1865;50.918;7.092;2022-10-04T13:49:36;9.30;;;2.10;;
3698;SDS011;1865;50.918;7.092;2022-10-04T13:55:44;9.97;;;2.23;;
3698;SDS011;1865;50.918;7.092;2022-10-04T13:58:48;12.63;;;3.03;;
3698;SDS011;1865;50.918;7.092;2022-10-04T14:04:22;10.43;;;2.50;;
3698;SDS011;1865;50.918;7.092;2022-10-04T14:07:30;12.20;;;2.47;;
3698;SDS011;1865;50.918;7.092;2022-10-04T14:12:57;13.70;;;2.10;;
3698;SDS011;1865;50.918;7.092;2022-10-04T14:15:59;10.10;;;2.20;;
3698;SDS011;1865;50.918;7.092;2022-10-04T14:19:09;11.20;;;2.40;;
3698;SDS011;1865;50.918;7.092;2022-10-04T14:24:41;9.50;;;2.10;;
3698;SDS011;1865;50.918;7.092;2022-10-04T14:47:50;9.43;;;2.20;;
3698;SDS011;1865;50.918;7.092;2022-10-04T14:53:22;11.97;;;3.20;;
3698;SDS011;1865;50.918;7.092;2022-10-04T15:01:22;12.60;;;2.70;;
3698;SDS011;1865;50.918;7.092;2022-10-04T15:03:54;9.50;;;2.50;;
3698;SDS011;1865;50.918;7.092;2022-10-04T15:06:48;11.23;;;2.40;;
3698;SDS011;1865;50.918;7.092;2022-10-04T15:09:51;8.47;;;2.53;;
3698;SDS011;1865;50.918;7.092;2022-10-04T15:12:23;10.73;;;2.50;;
3698;SDS011;1865;50.918;7.092;2022-10-04T15:21:19;8.57;;;2.17;;
3698;SDS011;1865;50.918;7.092;2022-10-04T15:23:37;11.37;;;2.60;;
3698;SDS011;1865;50.918;7.092;2022-10-04T15:36:45;9.47;;;2.40;;
3698;SDS011;1865;50.918;7.092;2022-10-04T15:39:34;10.67;;;2.03;;
3698;SDS011;1865;50.918;7.092;2022-10-04T15:42:14;8.50;;;2.43;;
3698;SDS011;1865;50.918;7.092;2022-10-04T15:55:47;12.07;;;3.03;;
3698;SDS011;1865;50.918;7.092;2022-10-04T16:06:44;9.20;;;2.47;;
3698;SDS011;1865;50.918;7.092;2022-10-04T16:09:25;8.53;;;2.30;;
3698;SDS011;1865;50.918;7.092;2022-10-04T16:12:27;14.33;;;3.10;;
3698;SDS011;1865;50.918;7.092;2022-10-04T16:14:57;17.20;;;2.63;;
3698;SDS011;1865;50.918;7.092;2022-10-04T16:26:08;10.87;;;2.80;;
3698;SDS011;1865;50.918;7.092;2022-10-04T16:29:00;9.53;;;2.87;;
3698;SDS011;1865;50.918;7.092;2022-10-04T16:31:56;11.70;;;3.37;;
3698;SDS011;1865;50.918;7.092;2022-10-04T16:39:39;9.37;;;3.40;;
3698;SDS011;1865;50.918;7.092;2022-10-04T16:48:00;14.20;;;3.33;;
3698;SDS011;1865;50.918;7.092;2022-10-04T16:53:48;17.73;;;3.50;;
3698;SDS011;1865;50.918;7.092;2022-10-04T16:56:30;11.87;;;4.00;;
3698;SDS011;1865;50.918;7.092;2022-10-04T16:59:41;12.50;;;3.20;;
3698;SDS011;1865;50.918;7.092;2022-10-04T17:02:17;13.23;;;3.47;;
3698;SDS011;1865;50.918;7.092;2022-10-04T17:04:54;9.47;;;3.20;;
3698;SDS011;1865;50.918;7.092;2022-10-04T17:13:33;10.80;;;3.50;;
3698;SDS011;1865;50.918;7.092;2022-10-04T17:16:13;9.60;;;3.50;;
3698;SDS011;1865;50.918;7.092;2022-10-04T17:21:57;17.40;;;3.67;;
3698;SDS011;1865;50.918;7.092;2022-10-04T17:30:17;19.70;;;3.50;;
3698;SDS011;1865;50.918;7.092;2022-10-04T17:32:55;14.93;;;3.87;;
3698;SDS011;1865;50.918;7.092;2022-10-04T17:38:35;16.10;;;3.47;;
3698;SDS011;1865;50.918;7.092;2022-10-04T17:41:30;13.40;;;3.97;;
3698;SDS011;1865;50.918;7.092;2022-10-04T17:50:00;10.03;;;3.70;;
3698;SDS011;1865;50.918;7.092;2022-10-04T17:52:48;11.00;;;4.40;;
3698;SDS011;1865;50.918;7.092;2022-10-04T17:55:57;13.40;;;4.00;;
3698;SDS011;1865;50.918;7.092;2022-10-04T17:58:27;11.13;;;4.30;;
3698;SDS011;1865;50.918;7.092;2022-10-04T18:03:51;11.90;;;3.47;;
3698;SDS011;1865;50.918;7.092;2022-10-04T18:06:27;12.60;;;3.90;;
3698;SDS011;1865;50.918;7.092;2022-10-04T18:09:29;12.97;;;3.77;;
3698;SDS011;1865;50.918;7.092;2022-10-04T18:12:04;10.23;;;3.50;;
3698;SDS011;1865;50.918;7.092;2022-10-04T18:14:57;11.93;;;3.90;;
3698;SDS011;1865;50.918;7.092;2022-10-04T18:17:48;10.63;;;4.20;;
3698;SDS011;1865;50.918;7.092;2022-10-04T18:22:59;10.73;;;3.77;;
3698;SDS011;1865;50.918;7.092;2022-10-04T18:25:43;12.23;;;3.67;;
3698;SDS011;1865;50.918;7.092;2022-10-04T18:28:13;12.53;;;4.57;;
3698;SDS011;1865;50.918;7.092;2022-10-04T18:33:15;12.73;;;3.30;;
3698;SDS011;1865;50.918;7.092;2022-10-04T18:35:49;18.30;;;4.30;;
3698;SDS011;1865;50.918;7.092;2022-10-04T18:38:20;16.97;;;3.70;;
3698;SDS011;1865;50.918;7.092;2022-10-04T18:40:54;13.47;;;3.67;;
3698;SDS011;1865;50.918;7.092;2022-10-04T18:43:25;9.50;;;3.00;;
3698;SDS011;1865;50.918;7.092;2022-10-04T18:46:28;11.80;;;3.83;;
3698;SDS011;1865;50.918;7.092;2022-10-04T18:57:27;14.13;;;4.60;;
3698;SDS011;1865;50.918;7.092;2022-10-04T19:00:02;14.93;;;4.13;;
3698;SDS011;1865;50.918;7.092;2022-10-04T19:05:50;9.60;;;3.60;;
3698;SDS011;1865;50.918;7.092;2022-10-04T19:14:38;11.57;;;3.30;;
3698;SDS011;1865;50.918;7.092;2022-10-04T19:17:38;10.60;;;3.50;;
3698;SDS011;1865;50.918;7.092;2022-10-04T19:23:24;14.30;;;4.10;;
3698;SDS011;1865;50.918;7.092;2022-10-04T19:28:43;9.33;;;3.93;;
3698;SDS011;1865;50.918;7.092;2022-10-04T19:31:22;9.57;;;4.03;;
3698;SDS011;1865;50.918;7.092;2022-10-04T19:33:58;9.40;;;4.00;;
3698;SDS011;1865;50.918;7.092;2022-10-04T19:36:38;10.20;;;4.13;;
3698;SDS011;1865;50.918;7.092;2022-10-04T19:41:59;15.07;;;5.70;;
3698;SDS011;1865;50.918;7.092;2022-10-04T19:44:31;16.03;;;5.77;;
3698;SDS011;1865;50.918;7.092;2022-10-04T19:50:17;11.47;;;4.87;;
3698;SDS011;1865;50.918;7.092;2022-10-04T19:52:49;11.70;;;4.10;;
3698;SDS011;1865;50.918;7.092;2022-10-04T20:01:15;11.70;;;4.37;;
3698;SDS011;1865;50.918;7.092;2022-10-04T20:03:43;10.87;;;4.50;;
3698;SDS011;1865;50.918;7.092;2022-10-04T20:06:11;11.90;;;4.27;;
3698;SDS011;1865;50.918;7.092;2022-10-04T20:11:14;18.57;;;5.43;;
3698;SDS011;1865;50.918;7.092;2022-10-04T20:13:43;15.10;;;5.50;;
3698;SDS011;1865;50.918;7.092;2022-10-04T20:16:11;12.07;;;5.50;;
3698;SDS011;1865;50.918;7.092;2022-10-04T20:21:08;18.03;;;5.97;;
3698;SDS011;1865;50.918;7.092;2022-10-04T20:23:47;19.00;;;6.50;;
3698;SDS011;1865;50.918;7.092;2022-10-04T20:26:38;21.60;;;5.70;;
3698;SDS011;1865;50.918;7.092;2022-10-04T20:32:09;24.13;;;5.20;;
3698;SDS011;1865;50.918;7.092;2022-10-04T20:34:58;15.03;;;4.80;;
3698;SDS011;1865;50.918;7.092;2022-10-04T20:40:55;10.43;;;4.37;;
3698;SDS011;1865;50.918;7.092;2022-10-04T20:45:42;13.10;;;4.80;;
3698;SDS011;1865;50.918;7.092;2022-10-04T20:48:10;12.63;;;4.57;;
3698;SDS011;1865;50.918;7.092;2022-10-04T20:50:41;12.80;;;4.27;;
3698;SDS011;1865;50.918;7.092;2022-10-04T20:53:26;10.47;;;4.27;;
3698;SDS011;1865;50.918;7.092;2022-10-04T20:56:10;13.93;;;4.50;;
3698;SDS011;1865;50.918;7.092;2022-10-04T20:58:42;12.17;;;4.10;;
3698;SDS011;1865;50.918;7.092;2022-10-04T21:01:25;12.47;;;5.00;;
3698;SDS011;1865;50.918;7.092;2022-10-04T21:06:55;8.20;;;3.73;;
3698;SDS011;1865;50.918;7.092;2022-10-04T21:09:22;10.20;;;4.10;;
3698;SDS011;1865;50.918;7.092;2022-10-04T21:11:50;11.57;;;4.63;;
3698;SDS011;1865;50.918;7.092;2022-10-04T21:14:21;10.43;;;4.53;;
3698;SDS011;1865;50.918;7.092;2022-10-04T21:16:49;11.87;;;4.03;;
3698;SDS011;1865;50.918;7.092;2022-10-04T21:22:06;12.27;;;4.67;;
3698;SDS011;1865;50.918;7.092;2022-10-04T21:24:40;17.03;;;4.97;;
3698;SDS011;1865;50.918;7.092;2022-10-04T21:27:11;9.93;;;4.10;;
3698;SDS011;1865;50.918;7.092;2022-10-04T21:29:49;9.13;;;3.73;;
3698;SDS011;1865;50.918;7.092;2022-10-04T21:32:17;8.93;;;4.40;;
3698;SDS011;1865;50.918;7.092;2022-10-04T21:34:46;18.33;;;4.03;;
3698;SDS011;1865;50.918;7.092;2022-10-04T21:37:13;11.30;;;4.30;;
3698;SDS011;1865;50.918;7.092;2022-10-04T21:39:39;11.03;;;4.63;;
3698;SDS011;1865;50.918;7.092;2022-10-04T21:42:05;11.53;;;4.87;;
3698;SDS011;1865;50.918;7.092;2022-10-04T21:44:30;10.73;;;4.33;;
3698;SDS011;1865;50.918;7.092;2022-10-04T21:46:56;10.50;;;3.90;;
3698;SDS011;1865;50.918;7.092;2022-10-04T21:49:21;12.60;;;4.70;;
3698;SDS011;1865;50.918;7.092;2022-10-04T21:51:47;12.93;;;5.43;;
3698;SDS011;1865;50.918;7.092;2022-10-04T21:54:13;13.03;;;4.73;;
3698;SDS011;1865;50.918;7.092;2022-10-04T21:56:39;17.40;;;5.47;;
3698;SDS011;1865;50.918;7.092;2022-10-04T21:59:07;11.40;;;3.90;;
3698;SDS011;1865;50.918;7.092;2022-10-04T22:01:33;23.20;;;4.90;;
3698;SDS011;1865;50.918;7.092;2022-10-04T22:03:59;8.73;;;4.30;;
3698;SDS011;1865;50.918;7.092;2022-10-04T22:06:25;11.53;;;4.60;;
3698;SDS011;1865;50.918;7.092;2022-10-04T22:08:51;12.20;;;4.00;;
3698;SDS011;1865;50.918;7.092;2022-10-04T22:11:17;17.77;;;6.27;;
3698;SDS011;1865;50.918;7.092;2022-10-04T22:13:45;19.43;;;6.63;;
3698;SDS011;1865;50.918;7.092;2022-10-04T22:16:12;16.27;;;6.80;;
3698;SDS011;1865;50.918;7.092;2022-10-04T22:18:38;20.57;;;6.07;;
3698;SDS011;1865;50.918;7.092;2022-10-04T22:21:04;11.60;;;4.73;;
3698;SDS011;1865;50.918;7.092;2022-10-04T22:23:30;18.23;;;5.07;;
3698;SDS011;1865;50.918;7.092;2022-10-04T22:26:10;10.73;;;4.67;;
3698;SDS011;1865;50.918;7.092;2022-10-04T22:28:40;10.67;;;4.80;;
3698;SDS011;1865;50.918;7.092;2022-10-04T22:31:18;8.67;;;4.07;;
3698;SDS011;1865;50.918;7.092;2022-10-04T22:33:48;12.77;;;4.73;;
3698;SDS011;1865;50.918;7.092;2022-10-04T22:38:57;14.40;;;5.63;;
3698;SDS011;1865;50.918;7.092;2022-10-04T22:41:30;12.33;;;4.40;;
3698;SDS011;1865;50.918;7.092;2022-10-04T22:43:58;10.73;;;4.60;;
3698;SDS011;1865;50.918;7.092;2022-10-04T22:46:50;9.90;;;4.50;;
3698;SDS011;1865;50.918;7.092;2022-10-04T22:49:19;11.60;;;4.67;;
3698;SDS011;1865;50.918;7.092;2022-10-04T22:51:47;12.03;;;5.20;;
3698;SDS011;1865;50.918;7.092;2022-10-04T22:54:15;12.00;;;5.20;;
3698;SDS011;1865;50.918;7.092;2022-10-04T22:56:42;13.53;;;5.13;;
3698;SDS011;1865;50.918;7.092;2022-10-04T22:59:11;16.23;;;4.90;;
3698;SDS011;1865;50.918;7.092;2022-10-04T23:01:38;10.10;;;4.73;;
3698;SDS011;1865;50.918;7.092;2022-10-04T23:04:13;13.97;;;5.40;;
3698;SDS011;1865;50.918;7.092;2022-10-04T23:06:46;13.23;;;4.83;;
3698;SDS011;1865;50.918;7.092;2022-10-04T23:09:12;13.40;;;4.90;;
3698;SDS011;1865;50.918;7.092;2022-10-04T23:11:38;13.20;;;5.40;;
3698;SDS011;1865;50.918;7.092;2022-10-04T23:14:04;16.13;;;4.93;;
3698;SDS011;1865;50.918;7.092;2022-10-04T23:16:29;18.10;;;5.40;;
3698;SDS011;1865;50.918;7.092;2022-10-04T23:18:59;9.87;;;5.10;;
3698;SDS011;1865;50.918;7.092;2022-10-04T23:21:36;13.73;;;5.47;;
3698;SDS011;1865;50.918;7.092;2022-10-04T23:24:12;14.73;;;5.50;;
3698;SDS011;1865;50.918;7.092;2022-10-04T23:26:52;16.70;;;5.50;;
3698;SDS011;1865;50.918;7.092;2022-10-04T23:29:20;18.70;;;5.10;;
3698;SDS011;1865;50.918;7.092;2022-10-04T23:31:47;11.40;;;4.60;;
3698;SDS011;1865;50.918;7.092;2022-10-04T23:34:25;9.60;;;4.60;;
3698;SDS011;1865;50.918;7.092;2022-10-04T23:36:59;8.90;;;4.67;;
3698;SDS011;1865;50.918;7.092;2022-10-04T23:39:29;11.07;;;4.90;;
3698;SDS011;1865;50.918;7.092;2022-10-04T23:41:58;25.07;;;4.83;;
3698;SDS011;1865;50.918;7.092;2022-10-04T23:44:36;12.20;;;5.33;;
3698;SDS011;1865;50.918;7.092;2022-10-04T23:47:02;21.00;;;4.77;;
3698;SDS011;1865;50.918;7.092;2022-10-04T23:49:35;15.83;;;4.97;;
3698;SDS011;1865;50.918;7.092;2022-10-04T23:52:01;11.80;;;5.20;;
3698;SDS011;1865;50.918;7.092;2022-10-04T23:54:27;8.97;;;4.63;;
3698;SDS011;1865;50.918;7.092;2022-10-04T23:56:54;20.63;;;5.17;;